sensor_id;sensor_type;location;lat;lon;timestamp;pressure;altitude;pressure_sealevel;temperature;humidity
4590;BME280;2307;48.448;9.216;2024-01-30T00:00:03;96674.00;;;8.00;57.30
4590;BME280;2307;48.448;9.216;2024-01-30T00:02:30;96669.41;;;8.02;57.96
4590;BME280;2307;48.448;9.216;2024-01-30T00:04:58;96669.78;;;7.99;58.49
4590;BME280;2307;48.448;9.216;2024-01-30T00:07:24;96663.78;;;7.90;60.27
4590;BME280;2307;48.448;9.216;2024-01-30T00:09:51;96668.00;;;7.85;59.71
4590;BME280;2307;48.448;9.216;2024-01-30T00:12:17;96666.72;;;7.81;61.63
4590;BME280;2307;48.448;9.216;2024-01-30T00:14:43;96672.81;;;7.81;62.88
4590;BME280;2307;48.448;9.216;2024-01-30T00:17:10;96684.88;;;7.76;63.65
4590;BME280;2307;48.448;9.216;2024-01-30T00:19:36;96674.53;;;7.74;63.40
4590;BME280;2307;48.448;9.216;2024-01-30T00:22:04;96673.09;;;7.72;64.06
4590;BME280;2307;48.448;9.216;2024-01-30T00:24:30;96676.47;;;7.66;64.30
4590;BME280;2307;48.448;9.216;2024-01-30T00:26:57;96676.69;;;7.64;65.22
4590;BME280;2307;48.448;9.216;2024-01-30T00:29:23;96676.47;;;7.66;64.64
4590;BME280;2307;48.448;9.216;2024-01-30T00:31:50;96673.47;;;7.69;64.63
4590;BME280;2307;48.448;9.216;2024-01-30T00:34:17;96679.94;;;7.66;64.19
4590;BME280;2307;48.448;9.216;2024-01-30T00:36:44;96680.28;;;7.63;64.65
4590;BME280;2307;48.448;9.216;2024-01-30T00:39:11;96675.41;;;7.60;63.89
4590;BME280;2307;48.448;9.216;2024-01-30T00:41:40;96685.47;;;7.57;63.69
4590;BME280;2307;48.448;9.216;2024-01-30T00:44:06;96676.59;;;7.58;64.24
4590;BME280;2307;48.448;9.216;2024-01-30T00:46:33;96684.72;;;7.63;63.83
4590;BME280;2307;48.448;9.216;2024-01-30T00:48:59;96675.94;;;7.56;64.95
4590;BME280;2307;48.448;9.216;2024-01-30T00:51:26;96671.50;;;7.56;65.27
4590;BME280;2307;48.448;9.216;2024-01-30T00:53:54;96665.25;;;7.57;65.53
4590;BME280;2307;48.448;9.216;2024-01-30T00:56:22;96671.25;;;7.51;66.24
4590;BME280;2307;48.448;9.216;2024-01-30T00:58:49;96677.31;;;7.52;67.30
4590;BME280;2307;48.448;9.216;2024-01-30T01:01:15;96678.31;;;7.51;66.94
4590;BME280;2307;48.448;9.216;2024-01-30T01:03:42;96677.44;;;7.43;68.59
4590;BME280;2307;48.448;9.216;2024-01-30T01:06:08;96677.69;;;7.48;68.13
4590;BME280;2307;48.448;9.216;2024-01-30T01:08:35;96681.31;;;7.47;67.63
4590;BME280;2307;48.448;9.216;2024-01-30T01:11:01;96685.31;;;7.43;67.69
4590;BME280;2307;48.448;9.216;2024-01-30T01:13:30;96685.69;;;7.40;67.86
4590;BME280;2307;48.448;9.216;2024-01-30T01:15:56;96681.97;;;7.35;66.35
4590;BME280;2307;48.448;9.216;2024-01-30T01:18:22;96684.03;;;7.39;67.04
4590;BME280;2307;48.448;9.216;2024-01-30T01:20:49;96685.06;;;7.38;67.20
4590;BME280;2307;48.448;9.216;2024-01-30T01:23:15;96683.59;;;7.36;66.23
4590;BME280;2307;48.448;9.216;2024-01-30T01:25:41;96684.50;;;7.43;66.18
4590;BME280;2307;48.448;9.216;2024-01-30T01:28:08;96679.69;;;7.46;65.51
4590;BME280;2307;48.448;9.216;2024-01-30T01:30:35;96685.41;;;7.50;66.72
4590;BME280;2307;48.448;9.216;2024-01-30T01:33:02;96685.41;;;7.50;68.04
4590;BME280;2307;48.448;9.216;2024-01-30T01:35:28;96687.31;;;7.41;67.53
4590;BME280;2307;48.448;9.216;2024-01-30T01:37:55;96676.72;;;7.35;68.11
4590;BME280;2307;48.448;9.216;2024-01-30T01:40:22;96680.16;;;7.35;70.20
4590;BME280;2307;48.448;9.216;2024-01-30T01:42:49;96680.53;;;7.32;71.38
4590;BME280;2307;48.448;9.216;2024-01-30T01:45:15;96679.88;;;7.30;70.93
4590;BME280;2307;48.448;9.216;2024-01-30T01:47:43;96679.88;;;7.30;71.20
4590;BME280;2307;48.448;9.216;2024-01-30T01:50:11;96677.97;;;7.24;69.78
4590;BME280;2307;48.448;9.216;2024-01-30T01:52:38;96682.25;;;7.25;71.04
4590;BME280;2307;48.448;9.216;2024-01-30T01:55:05;96675.72;;;7.21;70.87
4590;BME280;2307;48.448;9.216;2024-01-30T01:57:33;96676.19;;;7.25;70.54
4590;BME280;2307;48.448;9.216;2024-01-30T01:59:59;96671.81;;;7.32;68.65
4590;BME280;2307;48.448;9.216;2024-01-30T02:02:26;96675.91;;;7.34;66.78
4590;BME280;2307;48.448;9.216;2024-01-30T02:04:57;96682.34;;;7.32;66.42
4590;BME280;2307;48.448;9.216;2024-01-30T02:07:24;96673.00;;;7.29;66.40
4590;BME280;2307;48.448;9.216;2024-01-30T02:09:50;96677.25;;;7.30;65.40
4590;BME280;2307;48.448;9.216;2024-01-30T02:12:17;96682.50;;;7.30;65.52
4590;BME280;2307;48.448;9.216;2024-01-30T02:14:46;96675.44;;;7.31;65.43
4590;BME280;2307;48.448;9.216;2024-01-30T02:17:13;96675.44;;;7.31;65.16
4590;BME280;2307;48.448;9.216;2024-01-30T02:19:39;96676.72;;;7.35;64.68
4590;BME280;2307;48.448;9.216;2024-01-30T02:22:07;96679.34;;;7.35;66.10
4590;BME280;2307;48.448;9.216;2024-01-30T02:24:33;96665.09;;;7.29;65.30
4590;BME280;2307;48.448;9.216;2024-01-30T02:27:00;96677.25;;;7.30;65.46
4590;BME280;2307;48.448;9.216;2024-01-30T02:29:26;96673.44;;;7.33;64.83
4590;BME280;2307;48.448;9.216;2024-01-30T02:31:53;96661.13;;;7.33;64.43
4590;BME280;2307;48.448;9.216;2024-01-30T02:34:19;96673.91;;;7.36;63.47
4590;BME280;2307;48.448;9.216;2024-01-30T02:36:46;96675.91;;;7.34;63.58
4590;BME280;2307;48.448;9.216;2024-01-30T02:39:14;96666.38;;;7.33;63.80
4590;BME280;2307;48.448;9.216;2024-01-30T02:41:40;96669.28;;;7.38;63.67
4590;BME280;2307;48.448;9.216;2024-01-30T02:44:06;96674.44;;;7.46;64.17
4590;BME280;2307;48.448;9.216;2024-01-30T02:46:33;96669.41;;;7.52;64.53
4590;BME280;2307;48.448;9.216;2024-01-30T02:48:59;96668.06;;;7.56;64.10
4590;BME280;2307;48.448;9.216;2024-01-30T02:51:26;96673.88;;;7.51;63.88
4590;BME280;2307;48.448;9.216;2024-01-30T02:53:52;96667.13;;;7.42;63.91
4590;BME280;2307;48.448;9.216;2024-01-30T02:56:20;96672.28;;;7.35;64.41
4590;BME280;2307;48.448;9.216;2024-01-30T02:58:46;96673.00;;;7.29;64.03
4590;BME280;2307;48.448;9.216;2024-01-30T03:01:12;96666.56;;;7.32;64.63
4590;BME280;2307;48.448;9.216;2024-01-30T03:03:39;96667.03;;;7.35;64.23
4590;BME280;2307;48.448;9.216;2024-01-30T03:06:05;96662.38;;;7.37;63.64
4590;BME280;2307;48.448;9.216;2024-01-30T03:08:32;96663.00;;;7.39;61.50
4590;BME280;2307;48.448;9.216;2024-01-30T03:10:59;96662.84;;;7.41;62.34
4590;BME280;2307;48.448;9.216;2024-01-30T03:13:27;96659.75;;;7.37;63.18
4590;BME280;2307;48.448;9.216;2024-01-30T03:15:54;96659.50;;;7.32;64.08
4590;BME280;2307;48.448;9.216;2024-01-30T03:18:20;96658.84;;;7.30;64.78
4590;BME280;2307;48.448;9.216;2024-01-30T03:20:47;96657.22;;;7.29;63.27
4590;BME280;2307;48.448;9.216;2024-01-30T03:23:13;96660.88;;;7.28;61.65
4590;BME280;2307;48.448;9.216;2024-01-30T03:25:40;96661.69;;;7.29;61.29
4590;BME280;2307;48.448;9.216;2024-01-30T03:28:06;96657.59;;;7.26;62.76
4590;BME280;2307;48.448;9.216;2024-01-30T03:30:35;96666.13;;;7.28;62.00
4590;BME280;2307;48.448;9.216;2024-01-30T03:33:01;96670.91;;;7.25;60.64
4590;BME280;2307;48.448;9.216;2024-01-30T03:35:27;96677.00;;;7.25;60.05
4590;BME280;2307;48.448;9.216;2024-01-30T03:37:54;96667.19;;;7.34;58.62
4590;BME280;2307;48.448;9.216;2024-01-30T03:40:20;96670.91;;;7.39;59.38
4590;BME280;2307;48.448;9.216;2024-01-30T03:42:46;96665.28;;;7.42;60.26
4590;BME280;2307;48.448;9.216;2024-01-30T03:45:13;96665.63;;;7.54;59.85
4590;BME280;2307;48.448;9.216;2024-01-30T03:47:41;96664.44;;;7.57;59.48
4590;BME280;2307;48.448;9.216;2024-01-30T03:50:09;96659.81;;;7.59;59.63
4590;BME280;2307;48.448;9.216;2024-01-30T03:52:35;96658.13;;;7.51;59.68
4590;BME280;2307;48.448;9.216;2024-01-30T03:55:02;96667.38;;;7.47;59.94
4590;BME280;2307;48.448;9.216;2024-01-30T03:57:28;96666.28;;;7.41;59.96
4590;BME280;2307;48.448;9.216;2024-01-30T03:59:55;96659.94;;;7.36;59.57
4590;BME280;2307;48.448;9.216;2024-01-30T04:02:21;96658.78;;;7.38;58.71
4590;BME280;2307;48.448;9.216;2024-01-30T04:04:49;96664.03;;;7.38;59.55
4590;BME280;2307;48.448;9.216;2024-01-30T04:07:15;96664.19;;;7.37;60.19
4590;BME280;2307;48.448;9.216;2024-01-30T04:09:42;96656.59;;;7.42;59.95
4590;BME280;2307;48.448;9.216;2024-01-30T04:12:08;96659.47;;;7.47;59.06
4590;BME280;2307;48.448;9.216;2024-01-30T04:14:34;96663.47;;;7.43;58.88
4590;BME280;2307;48.448;9.216;2024-01-30T04:17:01;96664.81;;;7.39;58.16
4590;BME280;2307;48.448;9.216;2024-01-30T04:19:28;96652.13;;;7.42;57.84
4590;BME280;2307;48.448;9.216;2024-01-30T04:21:56;96652.31;;;7.41;58.15
4590;BME280;2307;48.448;9.216;2024-01-30T04:24:22;96651.34;;;7.42;57.44
4590;BME280;2307;48.448;9.216;2024-01-30T04:26:48;96650.88;;;7.38;58.02
4590;BME280;2307;48.448;9.216;2024-01-30T04:29:15;96662.19;;;7.39;57.75
4590;BME280;2307;48.448;9.216;2024-01-30T04:31:41;96659.41;;;7.40;58.65
4590;BME280;2307;48.448;9.216;2024-01-30T04:34:07;96670.34;;;7.44;59.23
4590;BME280;2307;48.448;9.216;2024-01-30T04:36:34;96660.59;;;7.38;59.68
4590;BME280;2307;48.448;9.216;2024-01-30T04:39:02;96666.38;;;7.33;59.01
4590;BME280;2307;48.448;9.216;2024-01-30T04:41:28;96669.38;;;7.30;58.69
4590;BME280;2307;48.448;9.216;2024-01-30T04:43:56;96662.47;;;7.29;59.28
4590;BME280;2307;48.448;9.216;2024-01-30T04:46:23;96669.75;;;7.27;59.20
4590;BME280;2307;48.448;9.216;2024-01-30T04:48:49;96673.00;;;7.29;58.39
4590;BME280;2307;48.448;9.216;2024-01-30T04:51:15;96676.28;;;7.31;57.82
4590;BME280;2307;48.448;9.216;2024-01-30T04:53:42;96671.00;;;7.31;57.93
4590;BME280;2307;48.448;9.216;2024-01-30T04:56:10;96672.66;;;7.32;59.10
4590;BME280;2307;48.448;9.216;2024-01-30T04:58:36;96677.72;;;7.34;58.54
4590;BME280;2307;48.448;9.216;2024-01-30T05:01:02;96669.66;;;7.35;57.75
4590;BME280;2307;48.448;9.216;2024-01-30T05:03:32;96674.53;;;7.38;57.84
4590;BME280;2307;48.448;9.216;2024-01-30T05:05:58;96671.53;;;7.41;57.09
4590;BME280;2307;48.448;9.216;2024-01-30T05:08:25;96675.97;;;7.41;57.54
4590;BME280;2307;48.448;9.216;2024-01-30T05:10:51;96678.78;;;7.39;57.22
4590;BME280;2307;48.448;9.216;2024-01-30T05:13:19;96682.44;;;7.38;56.91
4590;BME280;2307;48.448;9.216;2024-01-30T05:15:45;96677.16;;;7.38;56.29
4590;BME280;2307;48.448;9.216;2024-01-30T05:18:12;96677.97;;;7.39;55.77
4590;BME280;2307;48.448;9.216;2024-01-30T05:20:38;96678.78;;;7.39;55.29
4590;BME280;2307;48.448;9.216;2024-01-30T05:23:04;96677.78;;;7.40;54.88
4590;BME280;2307;48.448;9.216;2024-01-30T05:25:31;96682.50;;;7.45;55.00
4590;BME280;2307;48.448;9.216;2024-01-30T05:27:57;96684.56;;;7.49;54.50
4590;BME280;2307;48.448;9.216;2024-01-30T05:30:25;96675.03;;;7.48;54.71
4590;BME280;2307;48.448;9.216;2024-01-30T05:32:51;96682.84;;;7.57;54.33
4590;BME280;2307;48.448;9.216;2024-01-30T05:35:18;96679.72;;;7.68;54.79
4590;BME280;2307;48.448;9.216;2024-01-30T05:37:46;96686.88;;;7.74;53.96
4590;BME280;2307;48.448;9.216;2024-01-30T05:40:12;96689.25;;;7.69;53.85
4590;BME280;2307;48.448;9.216;2024-01-30T05:42:39;96680.09;;;7.65;54.38
4590;BME280;2307;48.448;9.216;2024-01-30T05:45:05;96676.47;;;7.66;54.97
4590;BME280;2307;48.448;9.216;2024-01-30T05:47:34;96678.84;;;7.61;54.91
4590;BME280;2307;48.448;9.216;2024-01-30T05:50:00;96683.63;;;7.72;55.27
4590;BME280;2307;48.448;9.216;2024-01-30T05:52:27;96676.19;;;7.75;55.23
4590;BME280;2307;48.448;9.216;2024-01-30T05:54:53;96686.53;;;7.77;54.90
4590;BME280;2307;48.448;9.216;2024-01-30T05:57:19;96681.28;;;7.77;54.79
4590;BME280;2307;48.448;9.216;2024-01-30T05:59:46;96681.88;;;7.79;54.64
4590;BME280;2307;48.448;9.216;2024-01-30T06:02:13;96673.19;;;7.78;54.10
4590;BME280;2307;48.448;9.216;2024-01-30T06:04:40;96679.56;;;7.69;54.46
4590;BME280;2307;48.448;9.216;2024-01-30T06:07:07;96675.41;;;7.60;54.90
4590;BME280;2307;48.448;9.216;2024-01-30T06:09:33;96678.03;;;7.60;54.56
4590;BME280;2307;48.448;9.216;2024-01-30T06:11:59;96688.09;;;7.57;54.83
4590;BME280;2307;48.448;9.216;2024-01-30T06:14:26;96685.84;;;7.54;54.06
4590;BME280;2307;48.448;9.216;2024-01-30T06:16:52;96679.78;;;7.53;53.56
4590;BME280;2307;48.448;9.216;2024-01-30T06:19:19;96689.09;;;7.56;53.14
4590;BME280;2307;48.448;9.216;2024-01-30T06:21:46;96683.47;;;7.59;53.24
4590;BME280;2307;48.448;9.216;2024-01-30T06:24:13;96685.34;;;7.65;53.94
4590;BME280;2307;48.448;9.216;2024-01-30T06:26:39;96692.44;;;7.64;54.08
4590;BME280;2307;48.448;9.216;2024-01-30T06:29:06;96688.34;;;7.62;54.67
4590;BME280;2307;48.448;9.216;2024-01-30T06:31:32;96687.13;;;7.58;55.00
4590;BME280;2307;48.448;9.216;2024-01-30T06:33:59;96685.66;;;7.55;55.64
4590;BME280;2307;48.448;9.216;2024-01-30T06:36:25;96686.84;;;7.53;55.47
4590;BME280;2307;48.448;9.216;2024-01-30T06:38:53;96690.44;;;7.52;55.57
4590;BME280;2307;48.448;9.216;2024-01-30T06:41:19;96697.09;;;7.47;56.31
4590;BME280;2307;48.448;9.216;2024-01-30T06:43:46;96690.19;;;7.46;55.80
4590;BME280;2307;48.448;9.216;2024-01-30T06:46:12;96707.63;;;7.47;57.16
4590;BME280;2307;48.448;9.216;2024-01-30T06:48:39;96701.28;;;7.42;57.57
4590;BME280;2307;48.448;9.216;2024-01-30T06:51:06;96706.25;;;7.37;57.63
4590;BME280;2307;48.448;9.216;2024-01-30T06:53:32;96707.06;;;7.37;56.74
4590;BME280;2307;48.448;9.216;2024-01-30T06:56:00;96706.25;;;7.37;55.66
4590;BME280;2307;48.448;9.216;2024-01-30T06:58:27;96698.44;;;7.43;54.93
4590;BME280;2307;48.448;9.216;2024-01-30T07:00:53;96704.16;;;7.47;55.21
4590;BME280;2307;48.448;9.216;2024-01-30T07:03:20;96703.34;;;7.46;54.71
4590;BME280;2307;48.448;9.216;2024-01-30T07:05:46;96713.25;;;7.44;55.63
4590;BME280;2307;48.448;9.216;2024-01-30T07:08:13;96702.28;;;7.41;55.91
4590;BME280;2307;48.448;9.216;2024-01-30T07:10:42;96714.22;;;7.43;55.94
4590;BME280;2307;48.448;9.216;2024-01-30T07:13:10;96716.94;;;7.50;56.13
4590;BME280;2307;48.448;9.216;2024-01-30T07:15:36;96719.56;;;7.50;56.32
4590;BME280;2307;48.448;9.216;2024-01-30T07:18:03;96718.22;;;7.54;56.27
4590;BME280;2307;48.448;9.216;2024-01-30T07:20:29;96720.63;;;7.56;56.52
4590;BME280;2307;48.448;9.216;2024-01-30T07:22:57;96720.63;;;7.56;56.72
4590;BME280;2307;48.448;9.216;2024-01-30T07:25:23;96719.81;;;7.55;56.05
4590;BME280;2307;48.448;9.216;2024-01-30T07:27:51;96724.34;;;7.61;56.81
4590;BME280;2307;48.448;9.216;2024-01-30T07:30:19;96727.16;;;7.60;56.20
4590;BME280;2307;48.448;9.216;2024-01-30T07:32:46;96721.91;;;7.60;57.53
4590;BME280;2307;48.448;9.216;2024-01-30T07:35:12;96725.97;;;7.62;57.76
4590;BME280;2307;48.448;9.216;2024-01-30T07:37:39;96719.53;;;7.65;57.57
4590;BME280;2307;48.448;9.216;2024-01-30T07:40:06;96723.06;;;7.72;56.96
4590;BME280;2307;48.448;9.216;2024-01-30T07:42:32;96728.16;;;7.73;55.42
4590;BME280;2307;48.448;9.216;2024-01-30T07:44:59;96721.50;;;7.77;54.49
4590;BME280;2307;48.448;9.216;2024-01-30T07:47:27;96717.72;;;7.80;55.10
4590;BME280;2307;48.448;9.216;2024-01-30T07:49:54;96723.41;;;7.83;54.15
4590;BME280;2307;48.448;9.216;2024-01-30T07:52:20;96719.03;;;7.90;53.72
4590;BME280;2307;48.448;9.216;2024-01-30T07:54:46;96715.50;;;7.98;52.69
4590;BME280;2307;48.448;9.216;2024-01-30T07:57:13;96724.88;;;8.07;52.13
4590;BME280;2307;48.448;9.216;2024-01-30T07:59:39;96718.25;;;8.11;52.05
4590;BME280;2307;48.448;9.216;2024-01-30T08:02:07;96732.28;;;8.18;53.33
4590;BME280;2307;48.448;9.216;2024-01-30T08:04:35;96723.78;;;8.37;47.98
4590;BME280;2307;48.448;9.216;2024-01-30T08:07:02;96724.94;;;8.49;47.26
4590;BME280;2307;48.448;9.216;2024-01-30T08:09:28;96728.22;;;8.79;44.89
4590;BME280;2307;48.448;9.216;2024-01-30T08:11:54;96725.75;;;8.99;44.78
4590;BME280;2307;48.448;9.216;2024-01-30T08:14:21;96736.38;;;9.12;44.26
4590;BME280;2307;48.448;9.216;2024-01-30T08:16:47;96722.91;;;9.28;43.85
4590;BME280;2307;48.448;9.216;2024-01-30T08:19:14;96729.25;;;9.40;43.25
4590;BME280;2307;48.448;9.216;2024-01-30T08:21:41;96720.78;;;9.45;43.42
4590;BME280;2307;48.448;9.216;2024-01-30T08:24:08;96722.41;;;9.52;43.60
4590;BME280;2307;48.448;9.216;2024-01-30T08:26:34;96720.03;;;9.57;43.14
4590;BME280;2307;48.448;9.216;2024-01-30T08:29:01;96715.97;;;9.61;42.47
4590;BME280;2307;48.448;9.216;2024-01-30T08:31:27;96715.56;;;9.65;42.96
4590;BME280;2307;48.448;9.216;2024-01-30T08:33:53;96717.59;;;9.63;43.61
4590;BME280;2307;48.448;9.216;2024-01-30T08:36:20;96713.13;;;9.63;43.88
4590;BME280;2307;48.448;9.216;2024-01-30T08:38:48;96721.06;;;9.63;43.68
4590;BME280;2307;48.448;9.216;2024-01-30T08:41:14;96720.44;;;9.68;42.80
4590;BME280;2307;48.448;9.216;2024-01-30T08:43:40;96718.50;;;9.83;42.27
4590;BME280;2307;48.448;9.216;2024-01-30T08:46:07;96716.03;;;9.81;42.50
4590;BME280;2307;48.448;9.216;2024-01-30T08:48:33;96711.97;;;9.79;43.14
4590;BME280;2307;48.448;9.216;2024-01-30T08:51:01;96715.84;;;9.76;43.63
4590;BME280;2307;48.448;9.216;2024-01-30T08:53:28;96719.09;;;9.78;43.74
4590;BME280;2307;48.448;9.216;2024-01-30T08:55:56;96720.91;;;9.78;43.51
4590;BME280;2307;48.448;9.216;2024-01-30T08:58:24;96719.25;;;9.77;44.08
4590;BME280;2307;48.448;9.216;2024-01-30T09:00:50;96719.66;;;9.74;44.13
4590;BME280;2307;48.448;9.216;2024-01-30T09:03:17;96722.94;;;9.76;43.90
4590;BME280;2307;48.448;9.216;2024-01-30T09:05:44;96721.13;;;9.76;44.93
4590;BME280;2307;48.448;9.216;2024-01-30T09:08:10;96731.47;;;9.78;45.46
4590;BME280;2307;48.448;9.216;2024-01-30T09:10:37;96727.81;;;9.79;45.71
4590;BME280;2307;48.448;9.216;2024-01-30T09:13:05;96735.53;;;9.87;43.23
4590;BME280;2307;48.448;9.216;2024-01-30T09:15:31;96733.75;;;9.94;43.44
4590;BME280;2307;48.448;9.216;2024-01-30T09:17:57;96737.03;;;10.02;43.45
4590;BME280;2307;48.448;9.216;2024-01-30T09:20:24;96740.56;;;10.16;42.97
4590;BME280;2307;48.448;9.216;2024-01-30T09:22:50;96732.88;;;10.34;41.80
4590;BME280;2307;48.448;9.216;2024-01-30T09:25:16;96743.28;;;10.49;41.92
4590;BME280;2307;48.448;9.216;2024-01-30T09:27:43;96740.84;;;10.54;41.93
4590;BME280;2307;48.448;9.216;2024-01-30T09:30:12;96738.22;;;10.60;41.26
4590;BME280;2307;48.448;9.216;2024-01-30T09:32:39;96737.41;;;10.66;42.74
4590;BME280;2307;48.448;9.216;2024-01-30T09:35:05;96737.41;;;10.66;44.64
4590;BME280;2307;48.448;9.216;2024-01-30T09:37:32;96745.13;;;10.61;45.93
4590;BME280;2307;48.448;9.216;2024-01-30T09:39:58;96743.50;;;10.60;47.04
4590;BME280;2307;48.448;9.216;2024-01-30T09:42:26;96744.31;;;10.61;47.84
4590;BME280;2307;48.448;9.216;2024-01-30T09:44:54;96743.31;;;10.62;48.35
4590;BME280;2307;48.448;9.216;2024-01-30T09:47:22;96745.13;;;10.61;48.33
4590;BME280;2307;48.448;9.216;2024-01-30T09:49:48;96737.41;;;10.66;48.16
4590;BME280;2307;48.448;9.216;2024-01-30T09:52:16;96738.22;;;10.74;47.14
4590;BME280;2307;48.448;9.216;2024-01-30T09:54:43;96733.75;;;10.94;41.33
4590;BME280;2307;48.448;9.216;2024-01-30T09:57:11;96740.88;;;11.06;41.40
4590;BME280;2307;48.448;9.216;2024-01-30T09:59:37;96741.88;;;11.18;41.18
4590;BME280;2307;48.448;9.216;2024-01-30T10:02:04;96745.50;;;11.31;40.38
4590;BME280;2307;48.448;9.216;2024-01-30T10:04:31;96745.09;;;11.34;41.25
4590;BME280;2307;48.448;9.216;2024-01-30T10:06:59;96747.75;;;11.34;42.39
4590;BME280;2307;48.448;9.216;2024-01-30T10:09:26;96732.47;;;11.36;42.25
4590;BME280;2307;48.448;9.216;2024-01-30T10:11:53;96741.03;;;11.38;42.27
4590;BME280;2307;48.448;9.216;2024-01-30T10:14:19;96743.44;;;11.46;42.09
4590;BME280;2307;48.448;9.216;2024-01-30T10:16:46;96745.88;;;11.60;40.54
4590;BME280;2307;48.448;9.216;2024-01-30T10:19:13;96742.97;;;11.68;43.11
4590;BME280;2307;48.448;9.216;2024-01-30T10:21:40;96742.38;;;11.66;46.10
4590;BME280;2307;48.448;9.216;2024-01-30T10:24:07;96749.09;;;11.62;46.69
4590;BME280;2307;48.448;9.216;2024-01-30T10:26:33;96746.25;;;11.64;44.50
4590;BME280;2307;48.448;9.216;2024-01-30T10:29:00;96748.28;;;11.68;43.75
4590;BME280;2307;48.448;9.216;2024-01-30T10:31:27;96743.59;;;11.70;46.83
4590;BME280;2307;48.448;9.216;2024-01-30T10:33:54;96744.63;;;11.69;51.69
4590;BME280;2307;48.448;9.216;2024-01-30T10:36:20;96748.72;;;11.72;47.66
4590;BME280;2307;48.448;9.216;2024-01-30T10:38:52;96740.97;;;11.70;51.16
4590;BME280;2307;48.448;9.216;2024-01-30T10:41:20;96741.97;;;11.69;49.85
4590;BME280;2307;48.448;9.216;2024-01-30T10:43:54;96744.00;;;11.81;43.59
4590;BME280;2307;48.448;9.216;2024-01-30T10:46:25;96743.78;;;11.89;43.78
4590;BME280;2307;48.448;9.216;2024-01-30T10:48:55;96740.69;;;11.98;42.16
4590;BME280;2307;48.448;9.216;2024-01-30T10:51:23;96742.91;;;12.01;43.03
4590;BME280;2307;48.448;9.216;2024-01-30T10:53:50;96736.09;;;12.12;41.33
4590;BME280;2307;48.448;9.216;2024-01-30T10:56:18;96740.75;;;12.23;41.70
4590;BME280;2307;48.448;9.216;2024-01-30T10:58:46;96729.94;;;12.24;43.51
4590;BME280;2307;48.448;9.216;2024-01-30T11:01:13;96734.84;;;12.21;43.55
4590;BME280;2307;48.448;9.216;2024-01-30T11:03:40;96727.91;;;12.27;43.96
4590;BME280;2307;48.448;9.216;2024-01-30T11:06:10;96726.84;;;12.27;43.94
4590;BME280;2307;48.448;9.216;2024-01-30T11:08:37;96724.44;;;12.26;42.90
4590;BME280;2307;48.448;9.216;2024-01-30T11:11:03;96726.88;;;12.21;44.18
4590;BME280;2307;48.448;9.216;2024-01-30T11:13:36;96722.03;;;12.18;47.22
4590;BME280;2307;48.448;9.216;2024-01-30T11:16:02;96721.22;;;12.17;49.25
4590;BME280;2307;48.448;9.216;2024-01-30T11:18:29;96714.69;;;12.20;50.29
4590;BME280;2307;48.448;9.216;2024-01-30T11:20:55;96719.56;;;12.23;50.52
4590;BME280;2307;48.448;9.216;2024-01-30T11:23:22;96721.81;;;12.19;50.18
4590;BME280;2307;48.448;9.216;2024-01-30T11:25:51;96713.44;;;12.22;49.85
4590;BME280;2307;48.448;9.216;2024-01-30T11:28:18;96717.94;;;12.22;50.23
4590;BME280;2307;48.448;9.216;2024-01-30T11:30:46;96721.16;;;12.24;49.65
4590;BME280;2307;48.448;9.216;2024-01-30T11:33:15;96721.16;;;12.24;48.62
4590;BME280;2307;48.448;9.216;2024-01-30T11:35:53;96721.25;;;12.11;46.25
4590;BME280;2307;48.448;9.216;2024-01-30T11:38:19;96723.75;;;11.99;45.78
4590;BME280;2307;48.448;9.216;2024-01-30T11:40:47;96721.31;;;11.98;45.83
4590;BME280;2307;48.448;9.216;2024-01-30T11:43:14;96715.38;;;12.02;46.51
4590;BME280;2307;48.448;9.216;2024-01-30T11:45:41;96721.25;;;12.11;47.72
4590;BME280;2307;48.448;9.216;2024-01-30T11:48:10;96733.84;;;12.15;49.86
4590;BME280;2307;48.448;9.216;2024-01-30T11:50:39;96729.75;;;12.19;50.60
4590;BME280;2307;48.448;9.216;2024-01-30T11:53:06;96715.03;;;12.30;49.30
4590;BME280;2307;48.448;9.216;2024-01-30T11:55:32;96717.44;;;12.38;46.83
4590;BME280;2307;48.448;9.216;2024-01-30T11:58:01;96716.34;;;12.52;47.38
4590;BME280;2307;48.448;9.216;2024-01-30T12:00:27;96723.81;;;12.62;48.86
4590;BME280;2307;48.448;9.216;2024-01-30T12:02:55;96719.91;;;12.64;48.67
4590;BME280;2307;48.448;9.216;2024-01-30T12:05:23;96712.72;;;12.71;48.51
4590;BME280;2307;48.448;9.216;2024-01-30T12:07:50;96712.28;;;12.74;47.08
4590;BME280;2307;48.448;9.216;2024-01-30T12:10:16;96709.69;;;12.68;45.68
4590;BME280;2307;48.448;9.216;2024-01-30T12:12:45;96708.59;;;12.75;45.75
4590;BME280;2307;48.448;9.216;2024-01-30T12:15:12;96705.75;;;12.77;44.74
4590;BME280;2307;48.448;9.216;2024-01-30T12:17:39;96700.09;;;12.67;45.42
4590;BME280;2307;48.448;9.216;2024-01-30T12:20:05;96698.91;;;12.63;45.92
4590;BME280;2307;48.448;9.216;2024-01-30T12:22:34;96689.94;;;12.64;46.81
4590;BME280;2307;48.448;9.216;2024-01-30T12:25:02;96689.28;;;12.68;45.84
4590;BME280;2307;48.448;9.216;2024-01-30T12:27:29;96691.13;;;12.68;46.53
4590;BME280;2307;48.448;9.216;2024-01-30T12:29:55;96681.75;;;12.65;47.36
4590;BME280;2307;48.448;9.216;2024-01-30T12:32:22;96684.84;;;12.62;46.23
4590;BME280;2307;48.448;9.216;2024-01-30T12:34:48;96683.81;;;12.63;47.56
4590;BME280;2307;48.448;9.216;2024-01-30T12:37:15;96678.38;;;12.58;47.00
4590;BME280;2307;48.448;9.216;2024-01-30T12:39:46;96671.16;;;12.65;47.11
4590;BME280;2307;48.448;9.216;2024-01-30T12:42:12;96677.56;;;12.58;46.60
4590;BME280;2307;48.448;9.216;2024-01-30T12:44:39;96674.56;;;12.48;46.87
4590;BME280;2307;48.448;9.216;2024-01-30T12:47:06;96676.19;;;12.49;47.14
4590;BME280;2307;48.448;9.216;2024-01-30T12:49:34;96677.97;;;12.55;47.42
4590;BME280;2307;48.448;9.216;2024-01-30T12:52:01;96677.75;;;12.56;47.01
4590;BME280;2307;48.448;9.216;2024-01-30T12:54:27;96677.28;;;12.66;46.57
4590;BME280;2307;48.448;9.216;2024-01-30T12:56:55;96675.44;;;12.66;46.43
4590;BME280;2307;48.448;9.216;2024-01-30T12:59:22;96674.47;;;12.61;46.71
4590;BME280;2307;48.448;9.216;2024-01-30T13:01:49;96673.88;;;12.59;46.73
4590;BME280;2307;48.448;9.216;2024-01-30T13:04:15;96676.97;;;12.81;47.48
4590;BME280;2307;48.448;9.216;2024-01-30T13:06:42;96679.13;;;12.90;47.37
4590;BME280;2307;48.448;9.216;2024-01-30T13:09:08;96681.72;;;12.97;47.39
4590;BME280;2307;48.448;9.216;2024-01-30T13:11:34;96678.63;;;13.00;47.46
4590;BME280;2307;48.448;9.216;2024-01-30T13:14:02;96680.09;;;12.96;46.31
4590;BME280;2307;48.448;9.216;2024-01-30T13:16:29;96685.16;;;12.97;46.72
4590;BME280;2307;48.448;9.216;2024-01-30T13:18:55;96684.72;;;13.00;46.99
4590;BME280;2307;48.448;9.216;2024-01-30T13:21:22;96683.06;;;13.06;47.26
4590;BME280;2307;48.448;9.216;2024-01-30T13:23:48;96680.03;;;13.02;47.20
4590;BME280;2307;48.448;9.216;2024-01-30T13:26:18;96684.50;;;13.02;47.48